sensor_id;sensor_type;location;lat;lon;timestamp;pressure;altitude;pressure_sealevel;temperature;humidity
76592;BME280;65481;47.600;19.682;2023-04-25T00:00:17;99147.84;;;12.06;100.00
76592;BME280;65481;47.600;19.682;2023-04-25T00:05:18;99137.25;;;12.06;100.00
76592;BME280;65481;47.600;19.682;2023-04-25T00:10:20;99139.34;;;11.94;100.00
76592;BME280;65481;47.600;19.682;2023-04-25T00:15:20;99134.06;;;11.94;100.00
76592;BME280;65481;47.600;19.682;2023-04-25T00:20:21;99129.28;;;11.86;100.00
76592;BME280;65481;47.600;19.682;2023-04-25T00:25:23;99123.22;;;11.85;100.00
76592;BME280;65481;47.600;19.682;2023-04-25T00:30:24;99124.78;;;11.91;100.00
76592;BME280;65481;47.600;19.682;2023-04-25T00:35:24;99120.81;;;11.89;100.00
76592;BME280;65481;47.600;19.682;2023-04-25T00:40:26;99106.03;;;11.88;100.00
76592;BME280;65481;47.600;19.682;2023-04-25T00:45:29;99110.00;;;11.85;100.00
76592;BME280;65481;47.600;19.682;2023-04-25T00:50:30;99106.00;;;11.82;100.00
76592;BME280;65481;47.600;19.682;2023-04-25T00:55:33;99100.75;;;11.77;100.00
76592;BME280;65481;47.600;19.682;2023-04-25T01:00:36;99106.81;;;11.78;100.00
76592;BME280;65481;47.600;19.682;2023-04-25T01:05:37;99101.53;;;11.78;100.00
76592;BME280;65481;47.600;19.682;2023-04-25T01:10:37;99093.31;;;11.79;100.00
76592;BME280;65481;47.600;19.682;2023-04-25T01:15:39;99089.63;;;11.75;100.00
76592;BME280;65481;47.600;19.682;2023-04-25T01:20:40;99093.34;;;11.74;100.00
76592;BME280;65481;47.600;19.682;2023-04-25T01:25:42;99087.50;;;11.67;100.00
76592;BME280;65481;47.600;19.682;2023-04-25T01:30:43;99088.84;;;11.64;100.00
76592;BME280;65481;47.600;19.682;2023-04-25T01:35:43;99082.22;;;11.62;100.00
76592;BME280;65481;47.600;19.682;2023-04-25T01:40:45;99079.59;;;11.57;100.00
76592;BME280;65481;47.600;19.682;2023-04-25T01:45:47;99068.19;;;11.51;100.00
76592;BME280;65481;47.600;19.682;2023-04-25T01:50:49;99060.78;;;11.43;100.00
76592;BME280;65481;47.600;19.682;2023-04-25T01:55:50;99062.13;;;11.40;100.00
76592;BME280;65481;47.600;19.682;2023-04-25T02:00:50;99072.13;;;11.43;100.00
76592;BME280;65481;47.600;19.682;2023-04-25T02:05:51;99064.50;;;11.47;100.00
76592;BME280;65481;47.600;19.682;2023-04-25T02:10:51;99066.63;;;11.45;100.00
76592;BME280;65481;47.600;19.682;2023-04-25T02:15:52;99067.91;;;11.42;100.00
76592;BME280;65481;47.600;19.682;2023-04-25T02:20:52;99071.34;;;11.43;100.00
76592;BME280;65481;47.600;19.682;2023-04-25T02:25:53;99068.47;;;11.39;100.00
76592;BME280;65481;47.600;19.682;2023-04-25T02:30:55;99070.03;;;11.35;100.00
76592;BME280;65481;47.600;19.682;2023-04-25T02:35:56;99065.25;;;11.32;100.00
76592;BME280;65481;47.600;19.682;2023-04-25T02:40:56;99061.81;;;11.26;100.00
76592;BME280;65481;47.600;19.682;2023-04-25T02:45:57;99067.88;;;11.27;100.00
76592;BME280;65481;47.600;19.682;2023-04-25T02:50:57;99061.00;;;11.26;100.00
76592;BME280;65481;47.600;19.682;2023-04-25T02:55:58;99058.09;;;11.17;100.00
76592;BME280;65481;47.600;19.682;2023-04-25T03:00:59;99056.78;;;11.14;100.00
76592;BME280;65481;47.600;19.682;2023-04-25T03:06:00;99058.59;;;11.14;100.00
76592;BME280;65481;47.600;19.682;2023-04-25T03:11:01;99062.56;;;11.11;100.00
76592;BME280;65481;47.600;19.682;2023-04-25T03:16:01;99057.81;;;11.13;100.00
76592;BME280;65481;47.600;19.682;2023-04-25T03:21:02;99052.28;;;11.10;100.00
76592;BME280;65481;47.600;19.682;2023-04-25T03:26:03;99049.88;;;11.08;100.00
76592;BME280;65481;47.600;19.682;2023-04-25T03:31:04;99048.84;;;11.04;100.00
76592;BME280;65481;47.600;19.682;2023-04-25T03:36:05;99052.78;;;11.01;100.00
76592;BME280;65481;47.600;19.682;2023-04-25T03:41:05;99049.34;;;11.01;100.00
76592;BME280;65481;47.600;19.682;2023-04-25T03:46:06;99044.59;;;10.98;100.00
76592;BME280;65481;47.600;19.682;2023-04-25T03:51:06;99049.34;;;11.01;100.00
76592;BME280;65481;47.600;19.682;2023-04-25T03:56:07;99051.44;;;10.99;100.00
76592;BME280;65481;47.600;19.682;2023-04-25T04:01:07;99052.78;;;11.01;100.00
76592;BME280;65481;47.600;19.682;2023-04-25T04:06:08;99052.50;;;10.98;100.00
76592;BME280;65481;47.600;19.682;2023-04-25T04:11:09;99048.81;;;10.99;100.00
76592;BME280;65481;47.600;19.682;2023-04-25T04:16:09;99047.22;;;10.98;100.00
76592;BME280;65481;47.600;19.682;2023-04-25T04:21:10;99046.94;;;10.99;100.00
76592;BME280;65481;47.600;19.682;2023-04-25T04:26:10;99046.94;;;10.99;100.00
76592;BME280;65481;47.600;19.682;2023-04-25T04:31:13;99045.63;;;10.97;100.00
76592;BME280;65481;47.600;19.682;2023-04-25T04:36:17;99046.69;;;10.96;100.00
76592;BME280;65481;47.600;19.682;2023-04-25T04:41:22;99046.16;;;10.94;100.00
76592;BME280;65481;47.600;19.682;2023-04-25T04:46:22;99033.75;;;10.94;100.00
76592;BME280;65481;47.600;19.682;2023-04-25T04:51:24;99038.22;;;10.94;100.00
76592;BME280;65481;47.600;19.682;2023-04-25T04:56:26;99046.69;;;10.96;100.00
76592;BME280;65481;47.600;19.682;2023-04-25T05:01:26;99041.13;;;10.97;100.00
76592;BME280;65481;47.600;19.682;2023-04-25T05:06:27;99043.03;;;11.02;100.00
76592;BME280;65481;47.600;19.682;2023-04-25T05:11:29;99039.59;;;11.06;100.00
76592;BME280;65481;47.600;19.682;2023-04-25T05:16:30;99034.06;;;11.03;100.00
76592;BME280;65481;47.600;19.682;2023-04-25T05:21:30;99042.47;;;11.05;100.00
76592;BME280;65481;47.600;19.682;2023-04-25T05:26:31;99040.38;;;11.07;100.00
76592;BME280;65481;47.600;19.682;2023-04-25T05:31:32;99049.88;;;11.08;100.00
76592;BME280;65481;47.600;19.682;2023-04-25T05:36:33;99047.50;;;11.01;100.00
76592;BME280;65481;47.600;19.682;2023-04-25T05:41:34;99044.06;;;11.01;100.00
76592;BME280;65481;47.600;19.682;2023-04-25T05:46:34;99045.13;;;11.05;100.00
76592;BME280;65481;47.600;19.682;2023-04-25T05:51:35;99050.69;;;11.09;100.00
76592;BME280;65481;47.600;19.682;2023-04-25T05:56:35;99064.44;;;11.11;100.00
76592;BME280;65481;47.600;19.682;2023-04-25T06:01:36;99059.69;;;11.18;100.00
76592;BME280;65481;47.600;19.682;2023-04-25T06:06:36;99072.63;;;11.14;100.00
76592;BME280;65481;47.600;19.682;2023-04-25T06:11:37;99069.41;;;11.07;100.00
76592;BME280;65481;47.600;19.682;2023-04-25T06:16:37;99077.59;;;11.05;100.00
76592;BME280;65481;47.600;19.682;2023-04-25T06:21:38;99078.63;;;10.99;100.00
76592;BME280;65481;47.600;19.682;2023-04-25T06:26:39;99076.75;;;10.95;100.00
76592;BME280;65481;47.600;19.682;2023-04-25T06:31:39;99073.84;;;10.91;100.00
76592;BME280;65481;47.600;19.682;2023-04-25T06:36:40;99088.63;;;10.87;100.00
76592;BME280;65481;47.600;19.682;2023-04-25T06:41:41;99076.16;;;10.77;100.00
76592;BME280;65481;47.600;19.682;2023-04-25T06:46:42;99087.22;;;10.74;100.00
76592;BME280;65481;47.600;19.682;2023-04-25T06:51:42;99082.72;;;10.69;100.00
76592;BME280;65481;47.600;19.682;2023-04-25T06:56:43;99087.19;;;10.69;100.00
76592;BME280;65481;47.600;19.682;2023-04-25T07:01:43;99086.66;;;10.62;100.00
76592;BME280;65481;47.600;19.682;2023-04-25T07:06:44;99086.38;;;10.58;100.00
76592;BME280;65481;47.600;19.682;2023-04-25T07:11:45;99096.94;;;10.63;100.00
76592;BME280;65481;47.600;19.682;2023-04-25T07:16:45;99096.44;;;10.66;100.00
76592;BME280;65481;47.600;19.682;2023-04-25T07:21:46;99091.41;;;10.70;100.00
76592;BME280;65481;47.600;19.682;2023-04-25T07:26:46;99094.84;;;10.65;100.00
76592;BME280;65481;47.600;19.682;2023-04-25T07:31:47;99096.69;;;10.70;100.00
76592;BME280;65481;47.600;19.682;2023-04-25T07:36:48;99095.09;;;10.69;100.00
76592;BME280;65481;47.600;19.682;2023-04-25T07:41:48;99097.97;;;10.62;100.00
76592;BME280;65481;47.600;19.682;2023-04-25T07:46:49;99099.03;;;10.61;100.00
76592;BME280;65481;47.600;19.682;2023-04-25T07:51:49;99104.53;;;10.54;100.00
76592;BME280;65481;47.600;19.682;2023-04-25T07:56:50;99097.66;;;10.53;100.00
76592;BME280;65481;47.600;19.682;2023-04-25T08:01:50;99099.84;;;10.62;100.00
76592;BME280;65481;47.600;19.682;2023-04-25T08:06:51;99098.28;;;10.66;100.00
76592;BME280;65481;47.600;19.682;2023-04-25T08:11:53;99095.34;;;10.62;100.00
76592;BME280;65481;47.600;19.682;2023-04-25T08:16:54;99100.16;;;10.70;100.00
76592;BME280;65481;47.600;19.682;2023-04-25T08:21:54;99105.19;;;10.77;100.00
76592;BME280;65481;47.600;19.682;2023-04-25T08:26:56;99105.03;;;10.94;100.00
76592;BME280;65481;47.600;19.682;2023-04-25T08:31:59;99117.81;;;11.28;100.00
76592;BME280;65481;47.600;19.682;2023-04-25T08:36:59;99113.38;;;11.60;100.00
76592;BME280;65481;47.600;19.682;2023-04-25T08:42:00;99123.75;;;11.97;100.00
76592;BME280;65481;47.600;19.682;2023-04-25T08:47:04;99124.28;;;12.25;100.00
76592;BME280;65481;47.600;19.682;2023-04-25T08:52:05;99127.69;;;12.62;100.00
76592;BME280;65481;47.600;19.682;2023-04-25T08:57:06;99125.78;;;12.78;100.00
76592;BME280;65481;47.600;19.682;2023-04-25T09:02:07;99129.19;;;12.89;100.00
76592;BME280;65481;47.600;19.682;2023-04-25T09:07:09;99136.06;;;13.00;100.00
76592;BME280;65481;47.600;19.682;2023-04-25T09:12:10;99142.16;;;12.96;100.00
76592;BME280;65481;47.600;19.682;2023-04-25T09:17:10;99138.94;;;13.04;100.00
76592;BME280;65481;47.600;19.682;2023-04-25T09:22:11;99143.31;;;13.40;100.00
76592;BME280;65481;47.600;19.682;2023-04-25T09:27:13;99145.81;;;13.66;100.00
76592;BME280;65481;47.600;19.682;2023-04-25T09:32:22;99142.16;;;14.01;100.00
76592;BME280;65481;47.600;19.682;2023-04-25T09:37:28;99140.91;;;13.88;100.00
76592;BME280;65481;47.600;19.682;2023-04-25T09:42:29;99136.91;;;13.91;100.00
76592;BME280;65481;47.600;19.682;2023-04-25T09:47:31;99129.75;;;13.91;100.00
76592;BME280;65481;47.600;19.682;2023-04-25T09:52:32;99133.84;;;14.13;100.00
76592;BME280;65481;47.600;19.682;2023-04-25T09:57:33;99134.84;;;14.17;100.00
76592;BME280;65481;47.600;19.682;2023-04-25T10:02:34;99138.00;;;14.19;100.00
76592;BME280;65481;47.600;19.682;2023-04-25T10:07:36;99138.53;;;14.21;100.00
76592;BME280;65481;47.600;19.682;2023-04-25T10:12:38;99142.25;;;14.20;100.00
76592;BME280;65481;47.600;19.682;2023-04-25T10:17:40;99139.75;;;14.34;100.00
76592;BME280;65481;47.600;19.682;2023-04-25T10:22:53;99132.53;;;15.37;100.00
76592;BME280;65481;47.600;19.682;2023-04-25T10:27:56;99136.81;;;16.43;88.93
76592;BME280;65481;47.600;19.682;2023-04-25T10:32:59;99141.31;;;16.28;82.37
76592;BME280;65481;47.600;19.682;2023-04-25T10:38:04;99141.13;;;16.25;83.36
76592;BME280;65481;47.600;19.682;2023-04-25T10:48:37;99139.31;;;15.05;84.29
76592;BME280;65481;47.600;19.682;2023-04-25T10:53:37;99156.19;;;14.36;89.28
76592;BME280;65481;47.600;19.682;2023-04-25T10:58:45;99148.69;;;14.14;95.93
76592;BME280;65481;47.600;19.682;2023-04-25T11:03:46;99152.25;;;13.59;97.24
76592;BME280;65481;47.600;19.682;2023-04-25T11:08:51;99155.03;;;13.23;100.00
76592;BME280;65481;47.600;19.682;2023-04-25T11:13:51;99168.88;;;12.94;100.00
76592;BME280;65481;47.600;19.682;2023-04-25T11:18:52;99177.41;;;12.81;100.00
76592;BME280;65481;47.600;19.682;2023-04-25T11:23:53;99184.00;;;12.78;100.00
76592;BME280;65481;47.600;19.682;2023-04-25T11:28:58;99204.41;;;12.72;100.00
76592;BME280;65481;47.600;19.682;2023-04-25T11:34:01;99209.69;;;12.78;100.00
76592;BME280;65481;47.600;19.682;2023-04-25T11:39:02;99212.88;;;12.80;100.00
76592;BME280;65481;47.600;19.682;2023-04-25T11:44:03;99213.94;;;12.73;100.00
76592;BME280;65481;47.600;19.682;2023-04-25T11:49:04;99219.72;;;12.91;100.00
76592;BME280;65481;47.600;19.682;2023-04-25T11:54:05;99211.75;;;13.07;100.00
76592;BME280;65481;47.600;19.682;2023-04-25T11:59:06;99220.16;;;13.24;98.88
76592;BME280;65481;47.600;19.682;2023-04-25T12:09:17;99217.78;;;13.28;96.10
76592;BME280;65481;47.600;19.682;2023-04-25T12:14:23;99224.38;;;13.46;94.63
76592;BME280;65481;47.600;19.682;2023-04-25T12:19:25;99228.06;;;13.55;91.63
76592;BME280;65481;47.600;19.682;2023-04-25T12:24:26;99230.25;;;13.88;91.21
76592;BME280;65481;47.600;19.682;2023-04-25T12:29:29;99233.94;;;13.97;88.23
76592;BME280;65481;47.600;19.682;2023-04-25T12:34:29;99228.84;;;14.01;87.16
76592;BME280;65481;47.600;19.682;2023-04-25T12:39:32;99236.06;;;14.35;82.66
76592;BME280;65481;47.600;19.682;2023-04-25T12:44:32;99239.69;;;14.49;82.03
76592;BME280;65481;47.600;19.682;2023-04-25T12:49:32;99238.91;;;14.44;80.96
76592;BME280;65481;47.600;19.682;2023-04-25T12:54:33;99243.34;;;14.53;79.75
76592;BME280;65481;47.600;19.682;2023-04-25T12:59:34;99234.63;;;14.48;79.46
76592;BME280;65481;47.600;19.682;2023-04-25T13:04:35;99235.50;;;14.38;77.69
76592;BME280;65481;47.600;19.682;2023-04-25T13:09:36;99222.97;;;14.44;77.12
76592;BME280;65481;47.600;19.682;2023-04-25T13:14:36;99226.25;;;14.70;74.49
76592;BME280;65481;47.600;19.682;2023-04-25T13:19:37;99225.31;;;15.09;70.45
76592;BME280;65481;47.600;19.682;2023-04-25T13:24:39;99221.66;;;15.29;66.37
76592;BME280;65481;47.600;19.682;2023-04-25T13:29:39;99216.56;;;15.77;64.57
76592;BME280;65481;47.600;19.682;2023-04-25T13:34:40;99219.34;;;15.66;64.21
76592;BME280;65481;47.600;19.682;2023-04-25T13:39:41;99217.03;;;15.59;65.58
76592;BME280;65481;47.600;19.682;2023-04-25T13:44:41;99221.03;;;16.00;64.16
76592;BME280;65481;47.600;19.682;2023-04-25T13:49:42;99223.84;;;16.09;64.42
76592;BME280;65481;47.600;19.682;2023-04-25T13:54:42;99212.19;;;15.86;64.35
76592;BME280;65481;47.600;19.682;2023-04-25T13:59:43;99214.72;;;16.15;64.22
76592;BME280;65481;47.600;19.682;2023-04-25T14:04:43;99208.81;;;16.52;63.34
76592;BME280;65481;47.600;19.682;2023-04-25T14:09:44;99215.59;;;16.11;63.58
76592;BME280;65481;47.600;19.682;2023-04-25T14:14:45;99208.41;;;15.92;64.00
76592;BME280;65481;47.600;19.682;2023-04-25T14:19:46;99207.59;;;15.92;64.36
76592;BME280;65481;47.600;19.682;2023-04-25T14:24:48;99210.75;;;15.94;63.48
76592;BME280;65481;47.600;19.682;2023-04-25T14:29:48;99212.78;;;16.02;62.65
76592;BME280;65481;47.600;19.682;2023-04-25T14:34:49;99208.44;;;16.58;59.99
76592;BME280;65481;47.600;19.682;2023-04-25T14:39:49;99207.53;;;17.24;58.06
76592;BME280;65481;47.600;19.682;2023-04-25T14:44:50;99199.63;;;17.47;57.47
76592;BME280;65481;47.600;19.682;2023-04-25T14:49:51;99194.19;;;17.38;57.49
76592;BME280;65481;47.600;19.682;2023-04-25T14:54:54;99190.28;;;17.58;57.66
76592;BME280;65481;47.600;19.682;2023-04-25T14:59:54;99194.28;;;17.19;56.91
76592;BME280;65481;47.600;19.682;2023-04-25T15:04:55;99195.69;;;17.16;56.87
76592;BME280;65481;47.600;19.682;2023-04-25T15:09:58;99200.72;;;17.04;55.57
76592;BME280;65481;47.600;19.682;2023-04-25T15:14:59;99197.56;;;17.02;54.84
76592;BME280;65481;47.600;19.682;2023-04-25T15:19:59;99204.25;;;16.85;55.04
76592;BME280;65481;47.600;19.682;2023-04-25T15:25:00;99196.06;;;16.95;55.18
76592;BME280;65481;47.600;19.682;2023-04-25T15:30:00;99195.75;;;16.83;55.47
76592;BME280;65481;47.600;19.682;2023-04-25T15:35:03;99199.34;;;16.59;56.58
76592;BME280;65481;47.600;19.682;2023-04-25T15:45:10;99196.59;;;16.17;57.81
76592;BME280;65481;47.600;19.682;2023-04-25T15:50:11;99197.97;;;16.15;56.50
76592;BME280;65481;47.600;19.682;2023-04-25T15:55:13;99202.06;;;15.88;56.02
76592;BME280;65481;47.600;19.682;2023-04-25T16:00:14;99193.72;;;15.75;56.50
76592;BME280;65481;47.600;19.682;2023-04-25T16:05:16;99197.66;;;15.59;57.54
76592;BME280;65481;47.600;19.682;2023-04-25T16:10:17;99200.44;;;15.49;57.66
76592;BME280;65481;47.600;19.682;2023-04-25T16:15:20;99199.44;;;15.20;59.20
76592;BME280;65481;47.600;19.682;2023-04-25T16:20:21;99199.78;;;14.89;58.57
76592;BME280;65481;47.600;19.682;2023-04-25T16:25:21;99201.34;;;14.61;57.97
76592;BME280;65481;47.600;19.682;2023-04-25T16:30:22;99195.44;;;14.39;59.81
76592;BME280;65481;47.600;19.682;2023-04-25T16:35:23;99194.19;;;14.32;61.31
76592;BME280;65481;47.600;19.682;2023-04-25T16:40:24;99199.50;;;14.27;62.39
76592;BME280;65481;47.600;19.682;2023-04-25T16:45:25;99211.75;;;14.22;62.59
76592;BME280;65481;47.600;19.682;2023-04-25T16:50:26;99207.31;;;14.13;64.49
76592;BME280;65481;47.600;19.682;2023-04-25T16:55:26;99214.78;;;14.05;64.13
76592;BME280;65481;47.600;19.682;2023-04-25T17:00:27;99214.00;;;14.00;64.00
76592;BME280;65481;47.600;19.682;2023-04-25T17:05:27;99221.22;;;13.94;64.42
76592;BME280;65481;47.600;19.682;2023-04-25T17:10:29;99218.13;;;13.82;65.13
76592;BME280;65481;47.600;19.682;2023-04-25T17:15:29;99224.25;;;13.72;65.75
76592;BME280;65481;47.600;19.682;2023-04-25T17:20:30;99235.19;;;13.60;66.77
76592;BME280;65481;47.600;19.682;2023-04-25T17:25:31;99242.91;;;13.46;69.25
76592;BME280;65481;47.600;19.682;2023-04-25T17:30:32;99232.91;;;13.22;71.56
76592;BME280;65481;47.600;19.682;2023-04-25T17:35:34;99233.47;;;13.09;73.25
76592;BME280;65481;47.600;19.682;2023-04-25T17:40:35;99253.38;;;12.91;73.69
76592;BME280;65481;47.600;19.682;2023-04-25T17:45:36;99252.56;;;12.80;74.26
76592;BME280;65481;47.600;19.682;2023-04-25T17:50:37;99261.59;;;12.68;74.95
76592;BME280;65481;47.600;19.682;2023-04-25T17:55:37;99266.34;;;12.46;77.07
76592;BME280;65481;47.600;19.682;2023-04-25T18:00:39;99273.22;;;12.31;78.45
76592;BME280;65481;47.600;19.682;2023-04-25T18:05:40;99283.75;;;12.10;79.63
76592;BME280;65481;47.600;19.682;2023-04-25T18:10:41;99295.78;;;11.86;81.85
76592;BME280;65481;47.600;19.682;2023-04-25T18:15:42;99307.59;;;11.62;82.86
76592;BME280;65481;47.600;19.682;2023-04-25T18:20:43;99312.03;;;11.51;82.42
76592;BME280;65481;47.600;19.682;2023-04-25T18:25:44;99319.56;;;11.32;84.21
76592;BME280;65481;47.600;19.682;2023-04-25T18:30:46;99332.44;;;11.18;85.59
76592;BME280;65481;47.600;19.682;2023-04-25T18:35:47;99324.34;;;10.98;86.97
76592;BME280;65481;47.600;19.682;2023-04-25T18:40:48;99333.28;;;10.91;87.38
76592;BME280;65481;47.600;19.682;2023-04-25T18:45:49;99332.72;;;10.89;86.91
76592;BME280;65481;47.600;19.682;2023-04-25T18:50:50;99340.63;;;10.89;85.61
76592;BME280;65481;47.600;19.682;2023-04-25T18:55:51;99350.72;;;10.65;86.25
76592;BME280;65481;47.600;19.682;2023-04-25T19:00:52;99358.25;;;10.29;87.21
76592;BME280;65481;47.600;19.682;2023-04-25T19:05:53;99370.94;;;10.10;87.87
76592;BME280;65481;47.600;19.682;2023-04-25T19:10:53;99377.69;;;10.00;88.08
76592;BME280;65481;47.600;19.682;2023-04-25T19:15:54;99374.94;;;9.90;88.81
76592;BME280;65481;47.600;19.682;2023-04-25T19:20:56;99378.59;;;9.89;89.13
76592;BME280;65481;47.600;19.682;2023-04-25T19:25:57;99374.84;;;9.85;89.43
76592;BME280;65481;47.600;19.682;2023-04-25T19:30:58;99375.22;;;9.72;90.02
76592;BME280;65481;47.600;19.682;2023-04-25T19:35:58;99379.28;;;9.62;90.64
76592;BME280;65481;47.600;19.682;2023-04-25T19:40:59;99385.03;;;9.59;90.73
76592;BME280;65481;47.600;19.682;2023-04-25T19:46:00;99371.00;;;9.53;91.36
76592;BME280;65481;47.600;19.682;2023-04-25T19:51:01;99377.72;;;9.44;92.17
76592;BME280;65481;47.600;19.682;2023-04-25T19:56:02;99373.56;;;9.48;92.31
76592;BME280;65481;47.600;19.682;2023-04-25T20:01:02;99373.81;;;9.47;92.91
76592;BME280;65481;47.600;19.682;2023-04-25T20:06:03;99374.28;;;9.44;93.39
76592;BME280;65481;47.600;19.682;2023-04-25T20:11:05;99374.22;;;9.38;93.96
76592;BME280;65481;47.600;19.682;2023-04-25T20:16:06;99375.16;;;9.49;93.61
76592;BME280;65481;47.600;19.682;2023-04-25T20:21:07;99364.88;;;9.48;93.90
76592;BME280;65481;47.600;19.682;2023-04-25T20:26:07;99366.00;;;9.35;94.55
76592;BME280;65481;47.600;19.682;2023-04-25T20:31:09;99372.44;;;9.27;95.10
76592;BME280;65481;47.600;19.682;2023-04-25T20:36:11;99373.56;;;9.14;96.06
76592;BME280;65481;47.600;19.682;2023-04-25T20:41:14;99378.28;;;8.95;97.29
76592;BME280;65481;47.600;19.682;2023-04-25T20:46:16;99382.81;;;8.83;98.51
76592;BME280;65481;47.600;19.682;2023-04-25T20:51:16;99386.72;;;8.68;100.00
76592;BME280;65481;47.600;19.682;2023-04-25T20:56:17;99388.84;;;8.66;100.00
76592;BME280;65481;47.600;19.682;2023-04-25T21:01:19;99388.41;;;8.57;100.00
76592;BME280;65481;47.600;19.682;2023-04-25T21:06:20;99394.13;;;8.54;100.00
76592;BME280;65481;47.600;19.682;2023-04-25T21:11:20;99385.34;;;8.48;100.00
76592;BME280;65481;47.600;19.682;2023-04-25T21:16:22;99394.81;;;8.49;100.00
76592;BME280;65481;47.600;19.682;2023-04-25T21:21:23;99400.06;;;8.49;100.00
76592;BME280;65481;47.600;19.682;2023-04-25T21:26:23;99410.38;;;8.51;100.00
76592;BME280;65481;47.600;19.682;2023-04-25T21:31:25;99414.81;;;8.51;100.00
76592;BME280;65481;47.600;19.682;2023-04-25T21:36:27;99425.44;;;8.56;100.00
76592;BME280;65481;47.600;19.682;2023-04-25T21:41:27;99420.44;;;8.54;100.00
76592;BME280;65481;47.600;19.682;2023-04-25T21:46:28;99429.19;;;8.60;100.00
76592;BME280;65481;47.600;19.682;2023-04-25T21:51:28;99423.63;;;8.44;100.00
76592;BME280;65481;47.600;19.682;2023-04-25T21:56:31;99428.00;;;8.39;100.00
76592;BME280;65481;47.600;19.682;2023-04-25T22:01:32;99429.03;;;8.26;100.00
76592;BME280;65481;47.600;19.682;2023-04-25T22:06:32;99431.44;;;8.27;100.00
76592;BME280;65481;47.600;19.682;2023-04-25T22:11:33;99441.75;;;8.05;100.00
76592;BME280;65481;47.600;19.682;2023-04-25T22:16:36;99435.00;;;7.97;100.00
76592;BME280;65481;47.600;19.682;2023-04-25T22:21:37;99455.34;;;7.78;100.00
76592;BME280;65481;47.600;19.682;2023-04-25T22:26:39;99450.56;;;7.75;100.00
76592;BME280;65481;47.600;19.682;2023-04-25T22:31:40;99443.91;;;7.72;100.00
76592;BME280;65481;47.600;19.682;2023-04-25T22:36:40;99450.78;;;7.73;100.00
76592;BME280;65481;47.600;19.682;2023-04-25T22:41:41;99466.63;;;7.67;100.00
76592;BME280;65481;47.600;19.682;2023-04-25T22:46:41;99465.59;;;7.56;100.00
76592;BME280;65481;47.600;19.682;2023-04-25T22:51:42;99471.75;;;7.50;100.00
76592;BME280;65481;47.600;19.682;2023-04-25T22:56:42;99476.50;;;7.41;100.00
76592;BME280;65481;47.600;19.682;2023-04-25T23:01:44;99481.41;;;7.37;100.00
76592;BME280;65481;47.600;19.682;2023-04-25T23:06:44;99472.25;;;7.16;100.00
76592;BME280;65481;47.600;19.682;2023-04-25T23:11:45;99491.34;;;7.05;100.00
76592;BME280;65481;47.600;19.682;2023-04-25T23:16:46;99490.22;;;7.01;100.00
76592;BME280;65481;47.600;19.682;2023-04-25T23:21:47;99489.31;;;7.07;100.00
76592;BME280;65481;47.600;19.682;2023-04-25T23:26:48;99488.72;;;7.05;100.00
76592;BME280;65481;47.600;19.682;2023-04-25T23:31:48;99487.22;;;6.97;100.00
76592;BME280;65481;47.600;19.682;2023-04-25T23:36:49;99493.94;;;6.93;100.00
76592;BME280;65481;47.600;19.682;2023-04-25T23:41:50;99489.50;;;6.93;100.00
76592;BME280;65481;47.600;19.682;2023-04-25T23:46:51;99491.00;;;7.01;100.00
76592;BME280;65481;47.600;19.682;2023-04-25T23:51:51;99494.88;;;6.99;100.00
76592;BME280;65481;47.600;19.682;2023-04-25T23:56:52;99495.72;;;7.11;100.00
